createdAt,value
2022-10-13T00:01:25.630Z,87.55
2022-10-13T00:03:55.063Z,87.29
2022-10-13T00:06:27.475Z,87.76
2022-10-13T00:08:56.879Z,87.25
2022-10-13T00:11:28.257Z,85.49
2022-10-13T00:13:59.967Z,84.68
2022-10-13T00:16:33.027Z,84.30
2022-10-13T00:19:02.334Z,84.27
2022-10-13T00:21:30.851Z,84.19
2022-10-13T00:23:59.721Z,84.26
2022-10-13T00:26:28.473Z,84.17
2022-10-13T00:28:57.434Z,84.13
2022-10-13T00:31:29.863Z,84.30
2022-10-13T00:33:59.983Z,85.98
2022-10-13T00:36:29.347Z,83.62
2022-10-13T00:38:58.638Z,82.41
2022-10-13T00:41:27.425Z,83.30
2022-10-13T00:44:19.104Z,82.06
2022-10-13T00:46:47.594Z,81.53
2022-10-13T00:49:16.120Z,81.70
2022-10-13T00:51:50.465Z,81.25
2022-10-13T00:54:25.087Z,81.35
2022-10-13T00:56:54.515Z,81.67
2022-10-13T00:59:29.401Z,82.06
2022-10-13T01:01:59.699Z,81.96
2022-10-13T01:04:34.902Z,82.03
2022-10-13T01:07:04.809Z,82.02
2022-10-13T01:09:38.010Z,81.71
2022-10-13T01:12:48.788Z,81.88
2022-10-13T01:15:43.199Z,81.51
2022-10-13T01:18:25.661Z,81.41
2022-10-13T01:21:58.863Z,81.86
2022-10-13T01:25:09.509Z,81.54
2022-10-13T01:28:28.088Z,80.83
2022-10-13T01:31:10.752Z,80.96
2022-10-13T01:33:56.835Z,80.63
2022-10-13T01:36:57.598Z,80.45
2022-10-13T01:39:44.766Z,80.72
2022-10-13T01:42:31.592Z,80.32
2022-10-13T01:45:02.841Z,81.33
2022-10-13T01:47:34.608Z,81.66
2022-10-13T01:50:06.470Z,82.22
2022-10-13T01:52:39.466Z,82.35
2022-10-13T01:55:11.564Z,82.17
2022-10-13T01:57:43.816Z,82.33
2022-10-13T02:00:19.226Z,82.08
2022-10-13T02:03:08.754Z,82.27
2022-10-13T02:06:02.501Z,82.09
2022-10-13T02:08:45.304Z,82.16
2022-10-13T02:11:22.448Z,82.45
2022-10-13T02:14:28.293Z,82.89
2022-10-13T02:17:01.983Z,83.43
2022-10-13T02:19:34.433Z,83.81
2022-10-13T02:22:04.600Z,83.97
2022-10-13T02:24:33.445Z,83.52
2022-10-13T02:27:02.306Z,83.23
2022-10-13T02:29:30.951Z,83.61
2022-10-13T02:31:59.474Z,83.81
2022-10-13T02:34:28.143Z,83.78
2022-10-13T02:36:56.894Z,84.13
2022-10-13T02:39:25.443Z,83.94
2022-10-13T02:41:53.958Z,83.91
2022-10-13T02:44:25.067Z,84.20
2022-10-13T02:46:53.598Z,84.56
2022-10-13T02:49:22.241Z,84.61
2022-10-13T02:51:50.800Z,84.55
2022-10-13T02:54:19.829Z,84.31
2022-10-13T02:56:48.438Z,84.15
2022-10-13T02:59:17.087Z,84.39
2022-10-13T03:01:45.671Z,84.37
2022-10-13T03:04:14.298Z,84.12
2022-10-13T03:06:42.804Z,84.19
2022-10-13T03:09:12.383Z,84.27
2022-10-13T03:11:43.363Z,84.82
2022-10-13T03:14:11.949Z,84.28
2022-10-13T03:16:40.736Z,84.00
2022-10-13T03:19:11.938Z,83.85
2022-10-13T03:21:40.603Z,83.76
2022-10-13T03:24:09.375Z,84.09
2022-10-13T03:26:38.314Z,84.43
2022-10-13T03:29:06.813Z,84.45
2022-10-13T03:31:35.683Z,84.85
2022-10-13T03:34:04.235Z,84.65
2022-10-13T03:36:32.771Z,85.30
2022-10-13T03:39:01.388Z,85.76
2022-10-13T03:41:29.956Z,85.55
2022-10-13T03:43:58.469Z,85.85
2022-10-13T03:46:30.222Z,85.71
2022-10-13T03:48:59.898Z,85.86
2022-10-13T03:51:30.926Z,85.82
2022-10-13T03:53:59.620Z,85.76
2022-10-13T03:56:28.717Z,85.29
2022-10-13T03:59:00.636Z,85.61
2022-10-13T04:01:30.927Z,85.42
2022-10-13T04:04:02.626Z,85.68
2022-10-13T04:06:31.934Z,86.02
2022-10-13T04:09:00.538Z,85.97
2022-10-13T04:11:29.702Z,85.87
2022-10-13T04:13:59.069Z,85.87
2022-10-13T04:16:31.336Z,85.93
2022-10-13T04:19:05.659Z,86.14
2022-10-13T04:21:35.965Z,85.75
2022-10-13T04:24:06.068Z,85.61
2022-10-13T04:26:36.572Z,85.73
2022-10-13T04:29:11.158Z,86.06
2022-10-13T04:31:42.995Z,86.28
2022-10-13T04:34:12.404Z,86.02
2022-10-13T04:36:40.969Z,85.40
2022-10-13T04:39:09.489Z,85.05
2022-10-13T04:41:38.044Z,85.41
2022-10-13T04:44:06.559Z,85.02
2022-10-13T04:46:35.169Z,85.20
2022-10-13T04:49:04.934Z,85.37
2022-10-13T04:51:33.823Z,85.66
2022-10-13T04:54:03.492Z,85.83
2022-10-13T04:56:32.591Z,85.99
2022-10-13T04:59:06.082Z,85.05
2022-10-13T05:01:36.146Z,84.53
2022-10-13T05:04:08.124Z,84.09
2022-10-13T05:07:05.364Z,83.81
2022-10-13T05:09:30.944Z,83.93
2022-10-13T05:11:59.517Z,83.66
2022-10-13T05:14:28.172Z,83.75
2022-10-13T05:16:56.736Z,83.44
2022-10-13T05:19:25.279Z,83.41
2022-10-13T05:21:53.817Z,83.47
2022-10-13T05:24:31.171Z,83.34
2022-10-13T05:26:59.871Z,83.08
2022-10-13T05:29:28.871Z,83.07
2022-10-13T05:31:57.510Z,82.71
2022-10-13T05:34:26.183Z,83.10
2022-10-13T05:36:54.750Z,83.31
2022-10-13T05:39:23.314Z,83.72
2022-10-13T05:41:51.834Z,84.28
2022-10-13T05:44:23.199Z,84.83
2022-10-13T05:46:55.010Z,84.81
2022-10-13T05:49:23.584Z,85.29
2022-10-13T05:52:04.299Z,85.76
2022-10-13T05:54:46.956Z,86.36
2022-10-13T05:57:24.581Z,86.26
2022-10-13T05:59:58.429Z,86.67
2022-10-13T06:02:35.174Z,86.55
2022-10-13T06:05:06.396Z,87.39
2022-10-13T06:07:35.086Z,86.68
2022-10-13T06:10:03.898Z,86.66
2022-10-13T06:12:32.488Z,86.43
2022-10-13T06:15:05.279Z,86.88
2022-10-13T06:17:39.331Z,86.54
2022-10-13T06:20:09.059Z,86.79
2022-10-13T06:22:38.126Z,87.24
2022-10-13T06:25:07.862Z,87.37
2022-10-13T06:27:36.459Z,86.85
2022-10-13T06:30:05.849Z,86.44
2022-10-13T06:32:34.700Z,86.29
2022-10-13T06:35:03.747Z,85.81
2022-10-13T06:37:32.373Z,85.19
2022-10-13T06:40:00.989Z,84.96
2022-10-13T06:42:32.308Z,84.85
2022-10-13T06:45:10.857Z,84.47
2022-10-13T06:47:42.093Z,84.62
2022-10-13T06:50:10.989Z,83.91
2022-10-13T06:52:39.777Z,83.46
2022-10-13T06:55:08.767Z,83.99
2022-10-13T06:57:38.401Z,83.57
2022-10-13T07:00:09.032Z,83.87
2022-10-13T07:02:39.208Z,84.37
2022-10-13T07:05:08.373Z,84.29
2022-10-13T07:07:36.920Z,84.74
2022-10-13T07:10:06.348Z,85.35
2022-10-13T07:12:34.953Z,85.15
2022-10-13T07:15:03.929Z,85.55
2022-10-13T07:17:32.436Z,85.55
2022-10-13T07:20:07.372Z,85.64
2022-10-13T07:22:44.500Z,85.40
2022-10-13T07:25:13.369Z,85.37
2022-10-13T07:27:42.284Z,85.09
2022-10-13T07:30:12.742Z,84.80
2022-10-13T07:32:42.530Z,85.16
2022-10-13T07:35:12.111Z,86.24
2022-10-13T07:37:40.799Z,86.03
2022-10-13T07:40:10.190Z,85.75
2022-10-13T07:42:50.865Z,85.44
2022-10-13T07:45:19.388Z,85.76
2022-10-13T07:47:48.024Z,86.03
2022-10-13T07:50:16.678Z,86.18
2022-10-13T07:52:45.304Z,85.72
2022-10-13T07:55:14.044Z,85.23
2022-10-13T07:57:42.558Z,84.27
2022-10-13T08:00:12.250Z,85.83
2022-10-13T08:02:43.736Z,85.90
2022-10-13T08:05:12.294Z,85.43
2022-10-13T08:07:40.871Z,85.39
2022-10-13T08:10:09.803Z,85.60
2022-10-13T08:12:38.737Z,85.77
2022-10-13T08:15:09.556Z,85.96
2022-10-13T08:17:38.267Z,86.34
2022-10-13T08:20:07.925Z,86.40
2022-10-13T08:22:36.678Z,86.55
2022-10-13T08:25:07.456Z,86.09
2022-10-13T08:27:50.660Z,86.13
2022-10-13T08:30:20.313Z,86.35
2022-10-13T08:32:48.915Z,86.39
2022-10-13T08:35:17.557Z,86.26
2022-10-13T08:37:46.075Z,86.02
2022-10-13T08:40:23.133Z,85.67
2022-10-13T08:42:54.534Z,85.59
2022-10-13T08:45:45.921Z,85.41
2022-10-13T08:48:27.987Z,85.05
2022-10-13T08:51:03.416Z,85.10
2022-10-13T08:53:37.515Z,85.01
2022-10-13T08:56:42.748Z,84.32
2022-10-13T08:59:15.037Z,84.16
2022-10-13T09:01:49.095Z,83.80
2022-10-13T09:04:36.574Z,83.80
2022-10-13T09:07:19.908Z,83.67
2022-10-13T09:09:54.876Z,83.42
2022-10-13T09:12:26.493Z,83.31
2022-10-13T09:15:12.205Z,83.13
2022-10-13T09:17:42.002Z,82.73
2022-10-13T09:20:25.140Z,82.99
2022-10-13T09:23:07.578Z,81.89
2022-10-13T09:25:45.900Z,82.06
2022-10-13T09:28:27.676Z,81.43
2022-10-13T09:31:26.927Z,80.46
2022-10-13T09:34:18.942Z,80.18
2022-10-13T09:37:06.852Z,79.64
2022-10-13T09:39:35.381Z,79.14
2022-10-13T09:42:27.118Z,78.23
2022-10-13T09:45:15.874Z,76.93
2022-10-13T09:48:05.955Z,76.70
2022-10-13T09:50:35.900Z,76.82
2022-10-13T09:53:35.619Z,75.97
2022-10-13T09:56:19.656Z,74.96
2022-10-13T09:59:13.421Z,74.64
2022-10-13T10:01:46.429Z,74.32
2022-10-13T10:04:20.588Z,74.06
2022-10-13T10:06:49.442Z,74.66
2022-10-13T10:09:33.616Z,74.46
2022-10-13T10:12:04.103Z,73.38
2022-10-13T10:14:37.027Z,73.06
2022-10-13T10:17:05.500Z,73.00
2022-10-13T10:19:45.639Z,72.90
2022-10-13T10:22:38.395Z,72.54
2022-10-13T10:25:42.048Z,72.92
2022-10-13T10:28:32.111Z,72.63
2022-10-13T10:31:36.789Z,72.86
2022-10-13T10:34:35.826Z,73.05
2022-10-13T10:37:25.591Z,74.09
2022-10-13T10:40:04.244Z,74.18
2022-10-13T10:42:52.558Z,74.50
2022-10-13T10:45:27.013Z,74.52
2022-10-13T10:48:14.801Z,73.77
2022-10-13T10:50:43.452Z,73.41
2022-10-13T10:53:45.855Z,72.78
2022-10-13T10:56:32.113Z,72.64
2022-10-13T10:59:36.900Z,73.80
2022-10-13T11:02:08.451Z,73.71
2022-10-13T11:04:49.407Z,73.49
2022-10-13T11:07:23.972Z,74.38
2022-10-13T11:10:14.474Z,74.72
2022-10-13T11:12:52.254Z,74.94
2022-10-13T11:15:31.282Z,75.04
2022-10-13T11:17:59.790Z,75.57
2022-10-13T11:20:59.431Z,75.22
2022-10-13T11:23:34.117Z,75.55
2022-10-13T11:26:43.350Z,75.70
2022-10-13T11:29:20.057Z,75.06
2022-10-13T11:31:55.364Z,74.92
2022-10-13T11:34:32.219Z,75.25
2022-10-13T11:37:03.202Z,75.29
2022-10-13T11:39:37.935Z,75.43
2022-10-13T11:42:35.251Z,75.60
2022-10-13T11:45:34.702Z,75.57
2022-10-13T11:48:24.210Z,75.28
2022-10-13T11:51:26.193Z,74.98
2022-10-13T11:54:19.551Z,74.96
2022-10-13T11:56:52.461Z,74.15
2022-10-13T11:59:37.770Z,74.24
2022-10-13T12:02:07.370Z,73.65
2022-10-13T12:04:36.021Z,74.02
2022-10-13T12:07:09.508Z,74.37
2022-10-13T12:09:54.492Z,74.53
2022-10-13T12:12:24.724Z,74.74
2022-10-13T12:15:01.072Z,74.24
2022-10-13T12:17:39.208Z,74.24
2022-10-13T12:20:28.059Z,74.47
2022-10-13T12:22:57.855Z,73.81
2022-10-13T12:25:29.456Z,74.29
2022-10-13T12:28:01.591Z,74.17
2022-10-13T12:30:38.706Z,74.46
2022-10-13T12:33:35.471Z,74.17
2022-10-13T12:36:22.883Z,74.85
2022-10-13T12:38:57.065Z,75.03
2022-10-13T12:41:35.696Z,75.28
2022-10-13T12:44:06.963Z,75.96
2022-10-13T12:46:40.593Z,76.39
2022-10-13T12:49:23.740Z,76.46
2022-10-13T12:52:14.611Z,77.27
2022-10-13T12:54:55.538Z,77.96
2022-10-13T12:57:38.168Z,77.59
2022-10-13T13:00:30.982Z,77.93
2022-10-13T13:03:03.773Z,77.86
2022-10-13T13:05:51.640Z,77.84
2022-10-13T13:08:31.870Z,78.14
2022-10-13T13:11:03.904Z,77.66
2022-10-13T13:13:32.407Z,77.72
2022-10-13T13:16:18.550Z,77.08
2022-10-13T13:18:51.887Z,76.53
2022-10-13T13:21:21.087Z,76.22
2022-10-13T13:23:53.691Z,75.57
2022-10-13T13:26:23.879Z,75.11
2022-10-13T13:28:56.725Z,74.78
2022-10-13T13:31:26.674Z,74.65
2022-10-13T13:33:55.293Z,74.46
2022-10-13T13:36:26.129Z,74.22
2022-10-13T13:38:54.923Z,73.95
2022-10-13T13:41:27.870Z,74.24
2022-10-13T13:43:56.233Z,74.31
2022-10-13T13:46:27.852Z,74.17
2022-10-13T13:48:56.649Z,73.85
2022-10-13T13:51:25.376Z,73.82
2022-10-13T13:53:54.026Z,74.05
2022-10-13T13:56:22.606Z,74.06
2022-10-13T13:58:51.157Z,74.44
2022-10-13T14:01:19.698Z,74.49
2022-10-13T14:03:48.350Z,74.33
2022-10-13T14:06:20.835Z,74.45
2022-10-13T14:08:50.211Z,74.32
2022-10-13T14:11:19.237Z,73.68
2022-10-13T14:13:47.869Z,73.67
2022-10-13T14:16:18.352Z,73.57
2022-10-13T14:18:46.969Z,73.53
2022-10-13T14:21:15.471Z,73.51
2022-10-13T14:23:47.145Z,73.91
2022-10-13T14:26:16.191Z,73.84
2022-10-13T14:28:45.724Z,73.96
2022-10-13T14:31:14.296Z,74.15
2022-10-13T14:33:44.108Z,74.22
2022-10-13T14:36:12.693Z,74.60
2022-10-13T14:38:41.203Z,75.04
2022-10-13T14:41:10.004Z,75.40
2022-10-13T14:43:42.706Z,75.68
2022-10-13T14:46:11.595Z,75.51
2022-10-13T14:48:40.160Z,76.22
2022-10-13T14:51:10.966Z,76.08
2022-10-13T14:53:42.807Z,76.10
2022-10-13T14:56:26.600Z,76.45
2022-10-13T14:59:02.506Z,76.19
2022-10-13T15:01:38.814Z,76.43
2022-10-13T15:04:10.676Z,76.22
2022-10-13T15:06:40.385Z,76.36
2022-10-13T15:09:10.145Z,76.49
2022-10-13T15:11:39.071Z,76.33
2022-10-13T15:14:08.069Z,75.89
2022-10-13T15:16:38.098Z,75.09
2022-10-13T15:19:06.826Z,74.77
2022-10-13T15:21:35.651Z,75.19
2022-10-13T15:24:04.912Z,74.72
2022-10-13T15:26:36.967Z,75.05
2022-10-13T15:29:05.599Z,75.47
2022-10-13T15:31:34.101Z,75.39
2022-10-13T15:34:02.720Z,75.51
2022-10-13T15:36:31.273Z,75.27
2022-10-13T15:38:59.768Z,74.23
2022-10-13T15:41:28.363Z,74.34
2022-10-13T15:43:56.912Z,74.69
2022-10-13T15:46:27.548Z,75.26
2022-10-13T15:48:56.932Z,75.16
2022-10-13T15:51:27.156Z,75.09
2022-10-13T15:53:55.942Z,75.13
2022-10-13T15:56:24.947Z,75.32
2022-10-13T15:58:53.918Z,75.28
2022-10-13T16:01:22.630Z,75.53
2022-10-13T16:03:55.411Z,75.63
2022-10-13T16:06:25.035Z,75.23
2022-10-13T16:08:53.839Z,75.49
2022-10-13T16:11:23.747Z,75.82
2022-10-13T16:13:52.771Z,75.34
2022-10-13T16:16:22.588Z,75.60
2022-10-13T16:18:51.625Z,75.88
2022-10-13T16:21:26.254Z,75.36
2022-10-13T16:23:54.899Z,75.24
2022-10-13T16:26:24.294Z,75.36
2022-10-13T16:28:56.983Z,75.27
2022-10-13T16:31:25.809Z,75.34
2022-10-13T16:33:54.732Z,75.64
2022-10-13T16:36:24.801Z,75.33
2022-10-13T16:38:55.225Z,74.90
2022-10-13T16:41:24.443Z,74.66
2022-10-13T16:43:53.161Z,74.79
2022-10-13T16:46:21.744Z,74.40
2022-10-13T16:48:50.359Z,74.43
2022-10-13T16:51:22.736Z,73.93
2022-10-13T16:54:03.581Z,73.97
2022-10-13T16:56:33.399Z,74.04
2022-10-13T16:59:05.299Z,74.17
2022-10-13T17:01:36.444Z,74.39
2022-10-13T17:04:05.331Z,74.30
2022-10-13T17:06:34.077Z,74.50
2022-10-13T17:09:03.496Z,74.40
2022-10-13T17:11:37.735Z,74.61
2022-10-13T17:14:06.981Z,74.64
2022-10-13T17:16:36.259Z,74.94
2022-10-13T17:19:05.005Z,75.10
2022-10-13T17:21:37.626Z,74.95
2022-10-13T17:24:07.758Z,75.11
2022-10-13T17:26:36.895Z,75.00
2022-10-13T17:29:05.551Z,75.06
2022-10-13T17:31:34.159Z,75.57
2022-10-13T17:34:02.908Z,75.74
2022-10-13T17:36:34.600Z,75.77
2022-10-13T17:39:11.511Z,75.65
2022-10-13T17:41:41.533Z,75.94
2022-10-13T17:44:11.457Z,75.77
2022-10-13T17:46:42.490Z,75.93
2022-10-13T17:49:12.815Z,75.99
2022-10-13T17:51:42.983Z,75.79
2022-10-13T17:54:15.987Z,75.91
2022-10-13T17:56:47.610Z,75.82
2022-10-13T17:59:17.820Z,75.80
2022-10-13T18:01:46.901Z,75.93
2022-10-13T18:04:19.342Z,75.72
2022-10-13T18:06:48.126Z,75.82
2022-10-13T18:09:20.442Z,75.91
2022-10-13T18:11:51.164Z,75.98
2022-10-13T18:14:25.116Z,76.16
2022-10-13T18:16:53.790Z,76.11
2022-10-13T18:19:25.101Z,76.61
2022-10-13T18:21:53.711Z,76.34
2022-10-13T18:24:22.479Z,76.30
2022-10-13T18:26:51.194Z,75.82
2022-10-13T18:29:20.464Z,76.28
2022-10-13T18:31:49.087Z,76.77
2022-10-13T18:34:17.952Z,76.59
2022-10-13T18:36:51.061Z,76.85
2022-10-13T18:39:21.797Z,76.85
2022-10-13T18:41:51.745Z,76.69
2022-10-13T18:44:26.800Z,76.96
2022-10-13T18:47:03.739Z,76.78
2022-10-13T18:49:35.191Z,77.02
2022-10-13T18:52:04.373Z,77.39
2022-10-13T18:54:33.300Z,77.36
2022-10-13T18:57:02.011Z,77.21
2022-10-13T18:59:42.012Z,77.03
2022-10-13T19:02:14.947Z,77.01
2022-10-13T19:04:43.486Z,77.03
2022-10-13T19:07:12.136Z,77.16
2022-10-13T19:09:40.717Z,77.36
2022-10-13T19:12:09.334Z,77.39
2022-10-13T19:14:38.013Z,77.26
2022-10-13T19:17:06.560Z,77.07
2022-10-13T19:19:38.249Z,76.53
2022-10-13T19:22:08.001Z,76.86
2022-10-13T19:24:36.759Z,76.90
2022-10-13T19:27:05.343Z,76.79
2022-10-13T19:29:35.709Z,76.80
2022-10-13T19:32:04.485Z,76.95
2022-10-13T19:34:33.503Z,77.15
2022-10-13T19:37:03.685Z,76.83
2022-10-13T19:39:32.309Z,77.48
2022-10-13T19:42:01.799Z,77.50
2022-10-13T19:44:36.057Z,77.70
2022-10-13T19:47:13.222Z,77.64
2022-10-13T19:49:42.319Z,77.74
2022-10-13T19:52:10.914Z,77.88
2022-10-13T19:54:40.302Z,78.11
2022-10-13T19:57:10.252Z,78.00
2022-10-13T19:59:38.866Z,77.73
2022-10-13T20:02:07.438Z,77.79
2022-10-13T20:04:36.209Z,78.05
2022-10-13T20:07:07.450Z,78.24
2022-10-13T20:09:38.875Z,78.70
2022-10-13T20:12:09.073Z,78.47
2022-10-13T20:14:42.087Z,78.32
2022-10-13T20:17:10.631Z,78.65
2022-10-13T20:19:39.215Z,78.83
2022-10-13T20:22:07.924Z,78.50
2022-10-13T20:24:36.546Z,78.45
2022-10-13T20:27:05.082Z,78.47
2022-10-13T20:29:33.583Z,78.19
2022-10-13T20:32:02.254Z,78.60
2022-10-13T20:34:31.680Z,78.34
2022-10-13T20:37:00.435Z,78.48
2022-10-13T20:39:29.943Z,78.55
2022-10-13T20:41:58.990Z,78.74
2022-10-13T20:44:27.906Z,79.04
2022-10-13T20:46:56.643Z,79.47
2022-10-13T20:49:26.372Z,79.20
2022-10-13T20:51:54.870Z,79.19
2022-10-13T20:54:23.703Z,79.45
2022-10-13T20:56:53.066Z,79.40
2022-10-13T20:59:21.532Z,79.25
2022-10-13T21:01:50.244Z,79.12
2022-10-13T21:04:18.810Z,79.01
2022-10-13T21:06:47.323Z,79.08
2022-10-13T21:09:15.966Z,79.50
2022-10-13T21:12:05.046Z,79.63
2022-10-13T21:14:43.428Z,79.76
2022-10-13T21:17:23.207Z,79.90
2022-10-13T21:19:55.708Z,79.89
2022-10-13T21:22:24.467Z,80.15
2022-10-13T21:24:53.693Z,80.50
2022-10-13T21:27:22.741Z,80.96
2022-10-13T21:29:51.756Z,81.51
2022-10-13T21:32:40.091Z,81.72
2022-10-13T21:35:17.391Z,81.49
2022-10-13T21:37:46.088Z,81.53
2022-10-13T21:40:15.122Z,81.85
2022-10-13T21:42:43.811Z,81.82
2022-10-13T21:45:12.658Z,81.69
2022-10-13T21:47:41.438Z,82.05
2022-10-13T21:50:10.423Z,81.96
2022-10-13T21:52:38.955Z,81.39
2022-10-13T21:55:08.321Z,81.54
2022-10-13T21:57:36.929Z,81.46
2022-10-13T22:00:06.865Z,81.41
2022-10-13T22:03:01.147Z,81.24
2022-10-13T22:05:43.004Z,81.57
2022-10-13T22:08:11.531Z,81.73
2022-10-13T22:10:40.035Z,81.99
2022-10-13T22:13:08.602Z,82.18
2022-10-13T22:15:37.112Z,82.42
2022-10-13T22:18:05.872Z,81.95
2022-10-13T22:20:37.426Z,82.33
2022-10-13T22:23:06.111Z,82.19
2022-10-13T22:25:35.334Z,82.81
2022-10-13T22:28:03.912Z,83.08
2022-10-13T22:30:32.471Z,84.14
2022-10-13T22:33:01.060Z,85.30
2022-10-13T22:35:29.823Z,84.93
2022-10-13T22:37:58.311Z,84.43
2022-10-13T22:40:26.962Z,85.10
2022-10-13T22:42:55.465Z,84.68
2022-10-13T22:45:24.232Z,84.37
2022-10-13T22:47:52.957Z,83.32
2022-10-13T22:50:21.524Z,84.74
2022-10-13T22:52:51.193Z,87.07
2022-10-13T22:55:19.738Z,86.42
2022-10-13T22:57:48.349Z,87.38
2022-10-13T23:00:17.132Z,88.44
2022-10-13T23:02:47.776Z,88.83
2022-10-13T23:05:16.268Z,88.50
2022-10-13T23:07:44.831Z,90.66
2022-10-13T23:10:13.421Z,91.12
2022-10-13T23:12:43.878Z,91.57
2022-10-13T23:15:12.468Z,91.35
2022-10-13T23:17:52.663Z,91.76
2022-10-13T23:20:21.290Z,91.58
2022-10-13T23:22:53.320Z,92.24
2022-10-13T23:25:21.902Z,93.11
2022-10-13T23:27:50.435Z,93.65
2022-10-13T23:30:19.161Z,93.95
2022-10-13T23:32:47.723Z,94.85
2022-10-13T23:35:16.828Z,94.64
2022-10-13T23:37:45.421Z,94.34
2022-10-13T23:40:14.035Z,94.02
2022-10-13T23:42:42.538Z,94.01
2022-10-13T23:45:11.469Z,94.25
2022-10-13T23:47:39.988Z,95.16
2022-10-13T23:50:09.194Z,95.22
2022-10-13T23:52:37.776Z,94.69
2022-10-13T23:55:06.605Z,94.59
2022-10-13T23:57:35.141Z,94.77
